sensor_id;sensor_type;location;lat;lon;timestamp;pressure;altitude;pressure_sealevel;temperature;humidity
21817;BME280;13247;47.504;7.382;2023-05-03T00:01:55;97942.19;;;11.50;100.00
21817;BME280;13247;47.504;7.382;2023-05-03T00:04:40;97949.69;;;11.64;100.00
21817;BME280;13247;47.504;7.382;2023-05-03T00:07:25;97954.47;;;11.83;100.00
21817;BME280;13247;47.504;7.382;2023-05-03T00:10:10;97956.66;;;11.31;100.00
21817;BME280;13247;47.504;7.382;2023-05-03T00:12:56;97956.50;;;11.37;100.00
21817;BME280;13247;47.504;7.382;2023-05-03T00:15:40;97959.66;;;11.51;100.00
21817;BME280;13247;47.504;7.382;2023-05-03T00:18:25;97949.91;;;11.56;100.00
21817;BME280;13247;47.504;7.382;2023-05-03T00:21:10;97950.38;;;11.73;100.00
21817;BME280;13247;47.504;7.382;2023-05-03T00:23:55;97953.19;;;11.64;100.00
21817;BME280;13247;47.504;7.382;2023-05-03T00:26:40;97953.47;;;11.54;100.00
21817;BME280;13247;47.504;7.382;2023-05-03T00:29:24;97956.03;;;11.55;100.00
21817;BME280;13247;47.504;7.382;2023-05-03T00:32:09;97949.91;;;11.56;100.00
21817;BME280;13247;47.504;7.382;2023-05-03T00:34:55;97954.97;;;11.29;100.00
21817;BME280;13247;47.504;7.382;2023-05-03T00:37:40;97946.34;;;11.59;100.00
21817;BME280;13247;47.504;7.382;2023-05-03T00:40:24;97957.22;;;11.44;100.00
21817;BME280;13247;47.504;7.382;2023-05-03T00:43:11;97953.00;;;11.38;100.00
21817;BME280;13247;47.504;7.382;2023-05-03T00:45:58;97951.97;;;11.79;100.00
21817;BME280;13247;47.504;7.382;2023-05-03T00:48:44;97949.50;;;11.36;100.00
21817;BME280;13247;47.504;7.382;2023-05-03T00:51:30;97962.72;;;10.98;100.00
21817;BME280;13247;47.504;7.382;2023-05-03T00:54:15;97963.78;;;10.89;100.00
21817;BME280;13247;47.504;7.382;2023-05-03T00:57:02;97951.94;;;11.10;100.00
21817;BME280;13247;47.504;7.382;2023-05-03T00:59:48;97953.63;;;11.11;100.00
21817;BME280;13247;47.504;7.382;2023-05-03T01:02:33;97956.25;;;11.11;100.00
21817;BME280;13247;47.504;7.382;2023-05-03T01:05:17;97953.56;;;11.14;100.00
21817;BME280;13247;47.504;7.382;2023-05-03T01:08:14;97950.69;;;11.25;100.00
21817;BME280;13247;47.504;7.382;2023-05-03T01:11:06;97955.13;;;11.23;100.00
21817;BME280;13247;47.504;7.382;2023-05-03T01:14:16;97945.91;;;11.07;100.00
21817;BME280;13247;47.504;7.382;2023-05-03T01:17:10;97945.94;;;11.03;100.00
21817;BME280;13247;47.504;7.382;2023-05-03T01:19:59;97945.09;;;11.03;100.00
21817;BME280;13247;47.504;7.382;2023-05-03T01:23:35;97943.97;;;11.13;100.00
21817;BME280;13247;47.504;7.382;2023-05-03T01:26:25;97944.88;;;11.12;100.00
21817;BME280;13247;47.504;7.382;2023-05-03T01:29:10;97938.81;;;11.10;100.00
21817;BME280;13247;47.504;7.382;2023-05-03T01:31:59;97937.63;;;11.23;100.00
21817;BME280;13247;47.504;7.382;2023-05-03T01:34:54;97939.44;;;11.20;100.00
21817;BME280;13247;47.504;7.382;2023-05-03T01:37:43;97939.25;;;11.27;100.00
21817;BME280;13247;47.504;7.382;2023-05-03T01:40:29;97940.03;;;11.31;100.00
21817;BME280;13247;47.504;7.382;2023-05-03T01:43:16;97942.94;;;11.20;100.00
21817;BME280;13247;47.504;7.382;2023-05-03T01:46:01;97940.16;;;11.26;100.00
21817;BME280;13247;47.504;7.382;2023-05-03T01:48:47;97930.31;;;11.34;100.00
21817;BME280;13247;47.504;7.382;2023-05-03T01:51:31;97930.56;;;11.25;100.00
21817;BME280;13247;47.504;7.382;2023-05-03T01:54:16;97928.81;;;11.24;100.00
21817;BME280;13247;47.504;7.382;2023-05-03T01:57:01;97929.38;;;11.01;100.00
21817;BME280;13247;47.504;7.382;2023-05-03T01:59:46;97931.34;;;10.92;100.00
21817;BME280;13247;47.504;7.382;2023-05-03T02:02:30;97931.28;;;10.95;100.00
21817;BME280;13247;47.504;7.382;2023-05-03T02:05:15;97928.63;;;10.96;100.00
21817;BME280;13247;47.504;7.382;2023-05-03T02:08:00;97932.06;;;10.62;100.00
21817;BME280;13247;47.504;7.382;2023-05-03T02:10:44;97922.16;;;10.74;100.00
21817;BME280;13247;47.504;7.382;2023-05-03T02:13:29;97928.09;;;10.82;100.00
21817;BME280;13247;47.504;7.382;2023-05-03T02:16:14;97922.81;;;10.44;100.00
21817;BME280;13247;47.504;7.382;2023-05-03T02:18:58;97923.72;;;10.42;100.00
21817;BME280;13247;47.504;7.382;2023-05-03T02:21:44;97922.44;;;10.61;100.00
21817;BME280;13247;47.504;7.382;2023-05-03T02:24:29;97926.94;;;10.56;100.00
21817;BME280;13247;47.504;7.382;2023-05-03T02:27:14;97918.97;;;9.75;100.00
21817;BME280;13247;47.504;7.382;2023-05-03T02:29:59;97933.59;;;9.37;100.00
21817;BME280;13247;47.504;7.382;2023-05-03T02:32:44;97931.50;;;9.58;100.00
21817;BME280;13247;47.504;7.382;2023-05-03T02:35:29;97935.78;;;9.62;100.00
21817;BME280;13247;47.504;7.382;2023-05-03T02:38:13;97921.63;;;9.73;100.00
21817;BME280;13247;47.504;7.382;2023-05-03T02:40:58;97922.13;;;9.46;100.00
21817;BME280;13247;47.504;7.382;2023-05-03T02:43:43;97922.88;;;9.51;100.00
21817;BME280;13247;47.504;7.382;2023-05-03T02:46:28;97922.25;;;9.86;100.00
21817;BME280;13247;47.504;7.382;2023-05-03T02:49:12;97928.06;;;9.04;100.00
21817;BME280;13247;47.504;7.382;2023-05-03T02:51:57;97931.56;;;9.03;100.00
21817;BME280;13247;47.504;7.382;2023-05-03T02:54:41;97924.91;;;9.35;100.00
21817;BME280;13247;47.504;7.382;2023-05-03T02:57:26;97928.06;;;9.02;100.00
21817;BME280;13247;47.504;7.382;2023-05-03T03:00:11;97935.13;;;8.96;100.00
21817;BME280;13247;47.504;7.382;2023-05-03T03:02:58;97937.84;;;8.90;100.00
21817;BME280;13247;47.504;7.382;2023-05-03T03:05:42;97931.84;;;8.85;100.00
21817;BME280;13247;47.504;7.382;2023-05-03T03:08:27;97936.41;;;8.72;100.00
21817;BME280;13247;47.504;7.382;2023-05-03T03:11:12;97935.44;;;8.78;100.00
21817;BME280;13247;47.504;7.382;2023-05-03T03:13:57;97932.53;;;8.96;100.00
21817;BME280;13247;47.504;7.382;2023-05-03T03:16:42;97934.53;;;8.79;100.00
21817;BME280;13247;47.504;7.382;2023-05-03T03:19:26;97939.97;;;8.65;100.00
21817;BME280;13247;47.504;7.382;2023-05-03T03:22:11;97937.22;;;8.73;100.00
21817;BME280;13247;47.504;7.382;2023-05-03T03:24:55;97935.72;;;8.59;100.00
21817;BME280;13247;47.504;7.382;2023-05-03T03:27:40;97940.47;;;8.90;100.00
21817;BME280;13247;47.504;7.382;2023-05-03T03:30:24;97938.75;;;8.89;100.00
21817;BME280;13247;47.504;7.382;2023-05-03T03:33:09;97945.44;;;8.48;100.00
21817;BME280;13247;47.504;7.382;2023-05-03T03:35:54;97951.13;;;8.78;100.00
21817;BME280;13247;47.504;7.382;2023-05-03T03:38:39;97934.13;;;9.06;100.00
21817;BME280;13247;47.504;7.382;2023-05-03T03:41:24;97934.81;;;9.17;100.00
21817;BME280;13247;47.504;7.382;2023-05-03T03:44:09;97940.50;;;8.88;100.00
21817;BME280;13247;47.504;7.382;2023-05-03T03:46:54;97938.84;;;8.83;100.00
21817;BME280;13247;47.504;7.382;2023-05-03T03:49:39;97944.13;;;8.80;100.00
21817;BME280;13247;47.504;7.382;2023-05-03T03:52:24;97937.50;;;8.54;100.00
21817;BME280;13247;47.504;7.382;2023-05-03T03:55:09;97939.84;;;8.74;100.00
21817;BME280;13247;47.504;7.382;2023-05-03T03:57:56;97943.47;;;8.65;100.00
21817;BME280;13247;47.504;7.382;2023-05-03T04:00:41;97941.84;;;8.54;100.00
21817;BME280;13247;47.504;7.382;2023-05-03T04:03:26;97950.16;;;8.16;100.00
21817;BME280;13247;47.504;7.382;2023-05-03T04:06:10;97952.56;;;8.36;100.00
21817;BME280;13247;47.504;7.382;2023-05-03T04:08:55;97948.81;;;8.56;100.00
21817;BME280;13247;47.504;7.382;2023-05-03T04:11:40;97956.56;;;7.89;100.00
21817;BME280;13247;47.504;7.382;2023-05-03T04:14:24;97963.44;;;7.98;100.00
21817;BME280;13247;47.504;7.382;2023-05-03T04:17:09;97959.09;;;7.97;100.00
21817;BME280;13247;47.504;7.382;2023-05-03T04:19:54;97964.06;;;8.18;100.00
21817;BME280;13247;47.504;7.382;2023-05-03T04:22:39;97957.22;;;8.08;100.00
21817;BME280;13247;47.504;7.382;2023-05-03T04:25:24;97958.81;;;8.21;100.00
21817;BME280;13247;47.504;7.382;2023-05-03T04:28:09;97958.63;;;8.39;100.00
21817;BME280;13247;47.504;7.382;2023-05-03T04:30:53;97949.91;;;8.40;100.00
21817;BME280;13247;47.504;7.382;2023-05-03T04:33:38;97958.63;;;8.36;100.00
21817;BME280;13247;47.504;7.382;2023-05-03T04:36:22;97949.66;;;8.58;100.00
21817;BME280;13247;47.504;7.382;2023-05-03T04:39:10;97959.19;;;8.61;100.00
21817;BME280;13247;47.504;7.382;2023-05-03T04:41:56;97960.28;;;8.46;100.00
21817;BME280;13247;47.504;7.382;2023-05-03T04:44:42;97960.09;;;8.58;100.00
21817;BME280;13247;47.504;7.382;2023-05-03T04:47:26;97960.09;;;8.58;100.00
21817;BME280;13247;47.504;7.382;2023-05-03T04:50:11;97959.22;;;8.58;100.00
21817;BME280;13247;47.504;7.382;2023-05-03T04:52:56;97961.78;;;8.62;100.00
21817;BME280;13247;47.504;7.382;2023-05-03T04:55:41;97969.94;;;8.40;100.00
21817;BME280;13247;47.504;7.382;2023-05-03T04:58:25;97965.53;;;8.43;100.00
21817;BME280;13247;47.504;7.382;2023-05-03T05:01:10;97964.88;;;8.22;100.00
21817;BME280;13247;47.504;7.382;2023-05-03T05:03:55;97966.63;;;8.27;100.00
21817;BME280;13247;47.504;7.382;2023-05-03T05:06:40;97970.00;;;8.32;100.00
21817;BME280;13247;47.504;7.382;2023-05-03T05:09:26;97974.69;;;8.03;100.00
21817;BME280;13247;47.504;7.382;2023-05-03T05:12:12;97973.72;;;8.12;100.00
21817;BME280;13247;47.504;7.382;2023-05-03T05:14:56;97971.09;;;8.13;100.00
21817;BME280;13247;47.504;7.382;2023-05-03T05:17:41;97973.69;;;8.16;100.00
21817;BME280;13247;47.504;7.382;2023-05-03T05:20:26;97978.00;;;8.19;100.00
21817;BME280;13247;47.504;7.382;2023-05-03T05:23:11;97977.19;;;8.14;100.00
21817;BME280;13247;47.504;7.382;2023-05-03T05:25:55;97985.81;;;8.20;100.00
21817;BME280;13247;47.504;7.382;2023-05-03T05:28:43;97988.28;;;8.35;100.00
21817;BME280;13247;47.504;7.382;2023-05-03T05:31:28;97994.25;;;8.46;100.00
21817;BME280;13247;47.504;7.382;2023-05-03T05:34:12;97994.72;;;8.76;100.00
21817;BME280;13247;47.504;7.382;2023-05-03T05:36:57;97981.59;;;8.79;100.00
21817;BME280;13247;47.504;7.382;2023-05-03T05:39:42;97985.78;;;8.92;100.00
21817;BME280;13247;47.504;7.382;2023-05-03T05:42:27;97981.97;;;9.14;100.00
21817;BME280;13247;47.504;7.382;2023-05-03T05:45:11;97986.25;;;9.18;100.00
21817;BME280;13247;47.504;7.382;2023-05-03T05:47:56;97983.41;;;9.33;100.00
21817;BME280;13247;47.504;7.382;2023-05-03T05:50:41;97975.34;;;9.45;100.00
21817;BME280;13247;47.504;7.382;2023-05-03T05:53:25;97979.94;;;9.29;100.00
21817;BME280;13247;47.504;7.382;2023-05-03T05:56:10;97978.88;;;9.42;100.00
21817;BME280;13247;47.504;7.382;2023-05-03T05:58:55;97976.41;;;9.33;100.00
21817;BME280;13247;47.504;7.382;2023-05-03T06:01:41;97966.19;;;9.70;100.00
21817;BME280;13247;47.504;7.382;2023-05-03T06:04:28;97969.78;;;9.65;100.00
21817;BME280;13247;47.504;7.382;2023-05-03T06:07:14;97965.75;;;9.44;100.00
21817;BME280;13247;47.504;7.382;2023-05-03T06:09:59;97966.19;;;9.17;100.00
21817;BME280;13247;47.504;7.382;2023-05-03T06:12:44;97957.34;;;9.27;100.00
21817;BME280;13247;47.504;7.382;2023-05-03T06:15:29;97951.63;;;9.54;100.00
21817;BME280;13247;47.504;7.382;2023-05-03T06:18:13;97948.09;;;9.55;100.00
21817;BME280;13247;47.504;7.382;2023-05-03T06:20:58;97955.81;;;9.14;100.00
21817;BME280;13247;47.504;7.382;2023-05-03T06:23:42;97951.44;;;9.63;100.00
21817;BME280;13247;47.504;7.382;2023-05-03T06:26:27;97950.63;;;9.61;100.00
21817;BME280;13247;47.504;7.382;2023-05-03T06:29:12;97950.97;;;9.40;100.00
21817;BME280;13247;47.504;7.382;2023-05-03T06:31:56;97948.84;;;9.65;100.00
21817;BME280;13247;47.504;7.382;2023-05-03T06:34:41;97949.13;;;9.46;100.00
21817;BME280;13247;47.504;7.382;2023-05-03T06:37:25;97954.44;;;9.43;100.00
21817;BME280;13247;47.504;7.382;2023-05-03T06:40:10;97942.00;;;9.56;100.00
21817;BME280;13247;47.504;7.382;2023-05-03T06:42:55;97935.06;;;10.01;100.00
21817;BME280;13247;47.504;7.382;2023-05-03T06:45:41;97931.16;;;10.21;100.00
21817;BME280;13247;47.504;7.382;2023-05-03T06:48:26;97934.09;;;10.48;100.00
21817;BME280;13247;47.504;7.382;2023-05-03T06:51:11;97923.69;;;10.83;100.00
21817;BME280;13247;47.504;7.382;2023-05-03T06:53:56;97922.66;;;10.10;100.00
21817;BME280;13247;47.504;7.382;2023-05-03T06:56:41;97916.44;;;10.14;100.00
21817;BME280;13247;47.504;7.382;2023-05-03T06:59:26;97914.78;;;10.52;100.00
21817;BME280;13247;47.504;7.382;2023-05-03T07:02:11;97905.75;;;11.01;100.00
21817;BME280;13247;47.504;7.382;2023-05-03T07:04:55;97907.38;;;11.07;100.00
21817;BME280;13247;47.504;7.382;2023-05-03T07:07:40;97896.69;;;11.15;100.00
21817;BME280;13247;47.504;7.382;2023-05-03T07:10:25;97903.09;;;11.03;100.00
21817;BME280;13247;47.504;7.382;2023-05-03T07:13:11;97890.63;;;11.11;100.00
21817;BME280;13247;47.504;7.382;2023-05-03T07:15:57;97882.63;;;11.17;100.00
21817;BME280;13247;47.504;7.382;2023-05-03T07:18:42;97888.31;;;11.34;100.00
21817;BME280;13247;47.504;7.382;2023-05-03T07:21:26;97877.97;;;10.93;100.00
21817;BME280;13247;47.504;7.382;2023-05-03T07:24:12;97877.78;;;11.36;100.00
21817;BME280;13247;47.504;7.382;2023-05-03T07:26:57;97868.13;;;11.70;100.00
21817;BME280;13247;47.504;7.382;2023-05-03T07:29:42;97873.91;;;11.50;100.00
21817;BME280;13247;47.504;7.382;2023-05-03T07:32:27;97871.13;;;11.89;100.00
21817;BME280;13247;47.504;7.382;2023-05-03T07:35:11;97878.44;;;11.77;100.00
21817;BME280;13247;47.504;7.382;2023-05-03T07:37:56;97868.31;;;11.95;100.00
21817;BME280;13247;47.504;7.382;2023-05-03T07:40:41;97857.41;;;12.08;100.00
21817;BME280;13247;47.504;7.382;2023-05-03T07:43:25;97869.22;;;12.24;100.00
21817;BME280;13247;47.504;7.382;2023-05-03T07:46:10;97863.13;;;12.22;100.00
21817;BME280;13247;47.504;7.382;2023-05-03T07:48:54;97858.69;;;12.24;100.00
21817;BME280;13247;47.504;7.382;2023-05-03T07:51:41;97857.91;;;12.50;100.00
21817;BME280;13247;47.504;7.382;2023-05-03T07:54:26;97861.31;;;12.81;100.00
21817;BME280;13247;47.504;7.382;2023-05-03T07:57:12;97858.13;;;12.98;100.00
21817;BME280;13247;47.504;7.382;2023-05-03T07:59:57;97859.56;;;12.80;100.00
21817;BME280;13247;47.504;7.382;2023-05-03T08:02:42;97856.03;;;13.09;100.00
21817;BME280;13247;47.504;7.382;2023-05-03T08:05:27;97854.81;;;13.19;100.00
21817;BME280;13247;47.504;7.382;2023-05-03T08:08:11;97847.19;;;13.11;100.00
21817;BME280;13247;47.504;7.382;2023-05-03T08:10:57;97847.28;;;13.34;100.00
21817;BME280;13247;47.504;7.382;2023-05-03T08:13:41;97856.97;;;13.59;100.00
21817;BME280;13247;47.504;7.382;2023-05-03T08:16:26;97854.69;;;13.97;100.00
21817;BME280;13247;47.504;7.382;2023-05-03T08:19:11;97857.75;;;14.33;100.00
21817;BME280;13247;47.504;7.382;2023-05-03T08:21:55;97856.50;;;13.71;100.00
21817;BME280;13247;47.504;7.382;2023-05-03T08:24:42;97858.41;;;13.67;100.00
21817;BME280;13247;47.504;7.382;2023-05-03T08:27:27;97855.09;;;14.10;100.00
21817;BME280;13247;47.504;7.382;2023-05-03T08:30:12;97854.75;;;14.19;100.00
21817;BME280;13247;47.504;7.382;2023-05-03T08:32:56;97848.88;;;13.88;100.00
21817;BME280;13247;47.504;7.382;2023-05-03T08:35:41;97852.06;;;14.21;100.00
21817;BME280;13247;47.504;7.382;2023-05-03T08:38:26;97858.63;;;14.09;100.00
21817;BME280;13247;47.504;7.382;2023-05-03T08:41:29;97847.91;;;13.90;100.00
21817;BME280;13247;47.504;7.382;2023-05-03T08:44:20;97847.81;;;14.16;100.00
21817;BME280;13247;47.504;7.382;2023-05-03T08:47:09;97843.94;;;14.71;100.00
21817;BME280;13247;47.504;7.382;2023-05-03T08:49:55;97851.59;;;14.56;100.00
21817;BME280;13247;47.504;7.382;2023-05-03T08:52:41;97850.22;;;14.23;100.00
21817;BME280;13247;47.504;7.382;2023-05-03T08:55:26;97852.16;;;14.17;100.00
21817;BME280;13247;47.504;7.382;2023-05-03T08:58:11;97845.53;;;14.54;100.00
21817;BME280;13247;47.504;7.382;2023-05-03T09:00:56;97850.94;;;14.94;100.00
21817;BME280;13247;47.504;7.382;2023-05-03T09:03:50;97850.56;;;14.81;100.00
21817;BME280;13247;47.504;7.382;2023-05-03T09:06:36;97848.84;;;15.24;100.00
21817;BME280;13247;47.504;7.382;2023-05-03T09:09:30;97863.81;;;15.45;100.00
21817;BME280;13247;47.504;7.382;2023-05-03T09:12:36;97854.03;;;15.05;100.00
21817;BME280;13247;47.504;7.382;2023-05-03T09:15:25;97860.25;;;14.59;100.00
21817;BME280;13247;47.504;7.382;2023-05-03T09:18:17;97861.88;;;14.85;100.00
21817;BME280;13247;47.504;7.382;2023-05-03T09:21:02;97861.13;;;14.60;100.00
21817;BME280;13247;47.504;7.382;2023-05-03T09:23:46;97870.59;;;14.87;100.00
21817;BME280;13247;47.504;7.382;2023-05-03T09:26:33;97868.91;;;15.08;100.00
21817;BME280;13247;47.504;7.382;2023-05-03T09:29:29;97864.94;;;15.18;100.00
21817;BME280;13247;47.504;7.382;2023-05-03T09:32:15;97868.06;;;15.27;100.00
21817;BME280;13247;47.504;7.382;2023-05-03T09:35:08;97870.81;;;14.82;100.00
21817;BME280;13247;47.504;7.382;2023-05-03T09:37:53;97869.63;;;15.11;100.00
21817;BME280;13247;47.504;7.382;2023-05-03T09:40:46;97874.28;;;15.48;100.00
21817;BME280;13247;47.504;7.382;2023-05-03T09:43:31;97871.19;;;15.58;100.00
21817;BME280;13247;47.504;7.382;2023-05-03T09:46:17;97876.22;;;15.64;100.00
21817;BME280;13247;47.504;7.382;2023-05-03T09:49:02;97866.22;;;15.71;100.00
21817;BME280;13247;47.504;7.382;2023-05-03T09:51:47;97865.66;;;15.63;100.00
21817;BME280;13247;47.504;7.382;2023-05-03T09:54:33;97858.97;;;15.95;100.00
21817;BME280;13247;47.504;7.382;2023-05-03T09:57:21;97866.28;;;15.69;100.00
21817;BME280;13247;47.504;7.382;2023-05-03T10:00:07;97864.88;;;16.01;100.00
21817;BME280;13247;47.504;7.382;2023-05-03T10:02:54;97857.97;;;16.17;100.00
21817;BME280;13247;47.504;7.382;2023-05-03T10:05:48;97861.31;;;16.02;100.00
21817;BME280;13247;47.504;7.382;2023-05-03T10:08:40;97861.84;;;15.90;100.00
21817;BME280;13247;47.504;7.382;2023-05-03T10:11:27;97859.13;;;16.30;100.00
21817;BME280;13247;47.504;7.382;2023-05-03T10:14:12;97846.56;;;16.73;100.00
21817;BME280;13247;47.504;7.382;2023-05-03T10:17:01;97849.09;;;16.18;100.00
21817;BME280;13247;47.504;7.382;2023-05-03T10:19:51;97861.69;;;16.13;100.00
21817;BME280;13247;47.504;7.382;2023-05-03T10:28:56;97840.13;;;16.78;100.00
21817;BME280;13247;47.504;7.382;2023-05-03T10:31:45;97830.63;;;16.74;100.00
21817;BME280;13247;47.504;7.382;2023-05-03T10:34:32;97820.75;;;17.48;100.00
21817;BME280;13247;47.504;7.382;2023-05-03T10:37:18;97825.13;;;16.96;99.20
21817;BME280;13247;47.504;7.382;2023-05-03T10:40:15;97811.69;;;17.35;100.00
21817;BME280;13247;47.504;7.382;2023-05-03T10:43:01;97809.94;;;17.52;100.00
21817;BME280;13247;47.504;7.382;2023-05-03T10:45:45;97811.91;;;17.47;100.00
21817;BME280;13247;47.504;7.382;2023-05-03T10:48:31;97804.97;;;17.45;96.09
21817;BME280;13247;47.504;7.382;2023-05-03T10:51:39;97799.03;;;18.24;91.71
21817;BME280;13247;47.504;7.382;2023-05-03T10:54:26;97795.75;;;18.19;95.72
21817;BME280;13247;47.504;7.382;2023-05-03T10:57:11;97800.28;;;18.01;94.42
21817;BME280;13247;47.504;7.382;2023-05-03T10:59:57;97804.56;;;18.03;92.88
21817;BME280;13247;47.504;7.382;2023-05-03T11:05:54;97786.56;;;18.57;89.79
21817;BME280;13247;47.504;7.382;2023-05-03T11:08:47;97783.44;;;18.33;91.33
21817;BME280;13247;47.504;7.382;2023-05-03T11:11:36;97776.88;;;18.87;87.26
21817;BME280;13247;47.504;7.382;2023-05-03T11:14:25;97782.75;;;18.30;89.04
21817;BME280;13247;47.504;7.382;2023-05-03T11:17:10;97766.94;;;18.75;87.75
21817;BME280;13247;47.504;7.382;2023-05-03T11:19:55;97767.13;;;19.17;78.25
21817;BME280;13247;47.504;7.382;2023-05-03T11:22:39;97767.03;;;19.34;79.87
21817;BME280;13247;47.504;7.382;2023-05-03T11:25:24;97773.09;;;19.21;79.21
21817;BME280;13247;47.504;7.382;2023-05-03T11:28:10;97774.50;;;19.58;78.71
21817;BME280;13247;47.504;7.382;2023-05-03T11:30:55;97767.00;;;18.73;81.46
21817;BME280;13247;47.504;7.382;2023-05-03T11:33:40;97760.75;;;19.35;82.46
21817;BME280;13247;47.504;7.382;2023-05-03T11:36:25;97756.28;;;19.20;74.96
21817;BME280;13247;47.504;7.382;2023-05-03T11:39:11;97759.13;;;19.77;75.99
21817;BME280;13247;47.504;7.382;2023-05-03T11:42:04;97754.00;;;19.44;76.70
21817;BME280;13247;47.504;7.382;2023-05-03T11:44:49;97758.63;;;19.84;78.92
21817;BME280;13247;47.504;7.382;2023-05-03T11:47:33;97750.94;;;20.08;81.93
21817;BME280;13247;47.504;7.382;2023-05-03T11:50:41;97751.31;;;20.30;73.31
21817;BME280;13247;47.504;7.382;2023-05-03T11:53:26;97744.47;;;19.70;75.92
21817;BME280;13247;47.504;7.382;2023-05-03T11:56:12;97741.25;;;19.93;76.90
21817;BME280;13247;47.504;7.382;2023-05-03T11:59:04;97739.91;;;19.58;77.52
21817;BME280;13247;47.504;7.382;2023-05-03T12:01:51;97736.59;;;20.65;70.23
21817;BME280;13247;47.504;7.382;2023-05-03T12:04:37;97738.09;;;19.86;72.37
21817;BME280;13247;47.504;7.382;2023-05-03T12:07:25;97732.91;;;19.41;76.18
21817;BME280;13247;47.504;7.382;2023-05-03T12:10:17;97739.53;;;20.06;74.11
21817;BME280;13247;47.504;7.382;2023-05-03T12:13:02;97727.03;;;20.06;68.01
21817;BME280;13247;47.504;7.382;2023-05-03T13:47:25;97614.47;;;20.97;58.17
21817;BME280;13247;47.504;7.382;2023-05-03T13:50:10;97601.34;;;21.82;59.85
21817;BME280;13247;47.504;7.382;2023-05-03T13:52:55;97597.03;;;21.43;58.94
21817;BME280;13247;47.504;7.382;2023-05-03T13:55:40;97597.53;;;21.48;58.02
21817;BME280;13247;47.504;7.382;2023-05-03T13:58:24;97594.53;;;21.53;63.89
21817;BME280;13247;47.504;7.382;2023-05-03T14:01:09;97595.28;;;21.55;57.61
21817;BME280;13247;47.504;7.382;2023-05-03T14:03:54;97589.31;;;21.51;57.89
21817;BME280;13247;47.504;7.382;2023-05-03T14:06:39;97589.78;;;21.07;57.94
21817;BME280;13247;47.504;7.382;2023-05-03T14:09:24;97577.94;;;21.12;60.43
21817;BME280;13247;47.504;7.382;2023-05-03T14:12:08;97569.78;;;21.51;56.04
21817;BME280;13247;47.504;7.382;2023-05-03T14:14:53;97572.47;;;21.26;55.65
21817;BME280;13247;47.504;7.382;2023-05-03T14:17:38;97573.41;;;21.25;55.69
21817;BME280;13247;47.504;7.382;2023-05-03T14:20:23;97567.94;;;21.64;58.47
21817;BME280;13247;47.504;7.382;2023-05-03T14:23:07;97564.47;;;21.26;57.54
21817;BME280;13247;47.504;7.382;2023-05-03T14:25:52;97569.91;;;21.49;57.65
21817;BME280;13247;47.504;7.382;2023-05-03T14:28:37;97567.53;;;22.06;54.20
21817;BME280;13247;47.504;7.382;2023-05-03T14:31:21;97571.53;;;21.75;54.29
21817;BME280;13247;47.504;7.382;2023-05-03T14:34:06;97558.84;;;21.79;53.49
21817;BME280;13247;47.504;7.382;2023-05-03T14:36:51;97561.09;;;22.32;54.51
21817;BME280;13247;47.504;7.382;2023-05-03T14:39:36;97549.84;;;22.63;48.44
21817;BME280;13247;47.504;7.382;2023-05-03T14:42:21;97557.28;;;22.47;51.78
21817;BME280;13247;47.504;7.382;2023-05-03T14:45:06;97547.00;;;21.83;53.01
21817;BME280;13247;47.504;7.382;2023-05-03T14:47:51;97547.22;;;22.04;53.19
21817;BME280;13247;47.504;7.382;2023-05-03T14:50:36;97546.66;;;22.11;51.88
21817;BME280;13247;47.504;7.382;2023-05-03T14:53:21;97550.38;;;22.21;56.08
21817;BME280;13247;47.504;7.382;2023-05-03T14:56:06;97556.22;;;22.26;48.88
21817;BME280;13247;47.504;7.382;2023-05-03T14:58:51;97542.31;;;22.69;50.92
21817;BME280;13247;47.504;7.382;2023-05-03T15:01:36;97556.84;;;22.88;40.94
21817;BME280;13247;47.504;7.382;2023-05-03T15:04:20;97551.72;;;22.50;42.33
21817;BME280;13247;47.504;7.382;2023-05-03T15:07:07;97554.78;;;23.03;40.56
21817;BME280;13247;47.504;7.382;2023-05-03T15:09:53;97550.97;;;23.51;40.68
21817;BME280;13247;47.504;7.382;2023-05-03T15:12:37;97558.50;;;23.57;37.86
21817;BME280;13247;47.504;7.382;2023-05-03T15:15:22;97548.22;;;23.95;38.56
21817;BME280;13247;47.504;7.382;2023-05-03T15:18:07;97545.53;;;24.17;37.58
21817;BME280;13247;47.504;7.382;2023-05-03T15:20:52;97544.75;;;23.62;39.43
21817;BME280;13247;47.504;7.382;2023-05-03T15:23:37;97546.09;;;23.45;38.27
21817;BME280;13247;47.504;7.382;2023-05-03T15:26:22;97550.09;;;23.51;38.77
21817;BME280;13247;47.504;7.382;2023-05-03T15:29:09;97543.88;;;23.83;38.10
21817;BME280;13247;47.504;7.382;2023-05-03T15:31:54;97551.97;;;24.26;37.90
21817;BME280;13247;47.504;7.382;2023-05-03T15:34:39;97553.09;;;24.12;37.49
21817;BME280;13247;47.504;7.382;2023-05-03T15:37:33;97548.28;;;23.62;38.48
21817;BME280;13247;47.504;7.382;2023-05-03T15:40:19;97545.75;;;24.26;35.81
21817;BME280;13247;47.504;7.382;2023-05-03T15:43:04;97548.75;;;23.12;36.78
21817;BME280;13247;47.504;7.382;2023-05-03T15:45:49;97543.38;;;23.89;37.41
21817;BME280;13247;47.504;7.382;2023-05-03T15:48:33;97543.88;;;23.83;37.29
21817;BME280;13247;47.504;7.382;2023-05-03T15:51:18;97545.03;;;24.24;35.71
21817;BME280;13247;47.504;7.382;2023-05-03T15:54:03;97551.63;;;23.09;35.99
21817;BME280;13247;47.504;7.382;2023-05-03T15:56:48;97545.94;;;23.24;37.02
21817;BME280;13247;47.504;7.382;2023-05-03T15:59:34;97544.09;;;24.02;38.10
21817;BME280;13247;47.504;7.382;2023-05-03T16:02:19;97545.47;;;23.30;36.18
21817;BME280;13247;47.504;7.382;2023-05-03T16:05:05;97549.09;;;23.29;37.69
21817;BME280;13247;47.504;7.382;2023-05-03T16:07:50;97545.25;;;23.67;37.87
21817;BME280;13247;47.504;7.382;2023-05-03T16:10:35;97546.56;;;23.72;36.46
21817;BME280;13247;47.504;7.382;2023-05-03T16:13:20;97540.56;;;23.02;37.03
21817;BME280;13247;47.504;7.382;2023-05-03T16:16:05;97535.25;;;23.24;36.66